sensor_id;sensor_type;location;lat;lon;timestamp;P1;durP1;ratioP1;P2;durP2;ratioP2
1987;SDS011;12775;46.994;15.498;2023-04-01T00:00:48;3.52;;;3.20;;
1987;SDS011;12775;46.994;15.498;2023-04-01T00:03:15;3.16;;;2.96;;
1987;SDS011;12775;46.994;15.498;2023-04-01T00:05:43;3.18;;;2.92;;
1987;SDS011;12775;46.994;15.498;2023-04-01T00:08:10;4.08;;;3.68;;
1987;SDS011;12775;46.994;15.498;2023-04-01T00:10:38;4.64;;;3.04;;
1987;SDS011;12775;46.994;15.498;2023-04-01T00:13:05;3.02;;;2.76;;
1987;SDS011;12775;46.994;15.498;2023-04-01T00:15:32;4.46;;;4.06;;
1987;SDS011;12775;46.994;15.498;2023-04-01T00:18:00;6.56;;;3.56;;
1987;SDS011;12775;46.994;15.498;2023-04-01T00:20:27;3.38;;;3.08;;
1987;SDS011;12775;46.994;15.498;2023-04-01T00:22:55;3.16;;;2.82;;
1987;SDS011;12775;46.994;15.498;2023-04-01T00:25:22;2.62;;;2.42;;
1987;SDS011;12775;46.994;15.498;2023-04-01T00:27:50;3.76;;;2.64;;
1987;SDS011;12775;46.994;15.498;2023-04-01T00:30:18;3.02;;;2.82;;
1987;SDS011;12775;46.994;15.498;2023-04-01T00:32:45;2.64;;;2.44;;
1987;SDS011;12775;46.994;15.498;2023-04-01T00:35:12;3.30;;;2.72;;
1987;SDS011;12775;46.994;15.498;2023-04-01T00:37:40;3.98;;;3.06;;
1987;SDS011;12775;46.994;15.498;2023-04-01T00:40:07;3.50;;;3.20;;
1987;SDS011;12775;46.994;15.498;2023-04-01T00:42:34;3.18;;;2.86;;
1987;SDS011;12775;46.994;15.498;2023-04-01T00:45:21;2.58;;;2.38;;
1987;SDS011;12775;46.994;15.498;2023-04-01T00:47:28;3.00;;;2.74;;
1987;SDS011;12775;46.994;15.498;2023-04-01T00:49:56;3.10;;;2.68;;
1987;SDS011;12775;46.994;15.498;2023-04-01T00:52:23;3.30;;;2.62;;
1987;SDS011;12775;46.994;15.498;2023-04-01T00:54:53;3.20;;;2.62;;
1987;SDS011;12775;46.994;15.498;2023-04-01T00:57:20;4.86;;;3.00;;
1987;SDS011;12775;46.994;15.498;2023-04-01T00:59:52;5.06;;;3.84;;
1987;SDS011;12775;46.994;15.498;2023-04-01T01:02:19;4.24;;;3.84;;
1987;SDS011;12775;46.994;15.498;2023-04-01T01:04:46;4.38;;;3.60;;
1987;SDS011;12775;46.994;15.498;2023-04-01T01:08:27;3.76;;;3.46;;
1987;SDS011;12775;46.994;15.498;2023-04-01T01:10:13;4.22;;;3.82;;
1987;SDS011;12775;46.994;15.498;2023-04-01T01:12:46;5.74;;;4.26;;
1987;SDS011;12775;46.994;15.498;2023-04-01T01:18:03;4.58;;;3.48;;
1987;SDS011;12775;46.994;15.498;2023-04-01T01:20:41;3.92;;;3.54;;
1987;SDS011;12775;46.994;15.498;2023-04-01T01:23:19;5.02;;;3.78;;
1987;SDS011;12775;46.994;15.498;2023-04-01T01:25:52;3.86;;;3.50;;
1987;SDS011;12775;46.994;15.498;2023-04-01T01:29:00;4.26;;;3.86;;
1987;SDS011;12775;46.994;15.498;2023-04-01T01:31:25;3.56;;;3.34;;
1987;SDS011;12775;46.994;15.498;2023-04-01T01:36:45;4.82;;;4.24;;
1987;SDS011;12775;46.994;15.498;2023-04-01T01:39:12;3.84;;;3.42;;
1987;SDS011;12775;46.994;15.498;2023-04-01T01:41:39;3.12;;;2.80;;
1987;SDS011;12775;46.994;15.498;2023-04-01T01:44:09;3.70;;;3.26;;
1987;SDS011;12775;46.994;15.498;2023-04-01T01:46:35;4.12;;;3.42;;
1987;SDS011;12775;46.994;15.498;2023-04-01T01:49:03;4.42;;;3.60;;
1987;SDS011;12775;46.994;15.498;2023-04-01T01:51:30;3.32;;;3.08;;
1987;SDS011;12775;46.994;15.498;2023-04-01T01:53:58;3.98;;;3.48;;
1987;SDS011;12775;46.994;15.498;2023-04-01T01:56:26;3.36;;;3.04;;
1987;SDS011;12775;46.994;15.498;2023-04-01T01:58:56;3.82;;;3.52;;
1987;SDS011;12775;46.994;15.498;2023-04-01T02:01:24;4.30;;;3.46;;
1987;SDS011;12775;46.994;15.498;2023-04-01T02:03:50;4.20;;;3.52;;
1987;SDS011;12775;46.994;15.498;2023-04-01T02:06:20;4.40;;;2.76;;
1987;SDS011;12775;46.994;15.498;2023-04-01T02:08:47;2.88;;;2.60;;
1987;SDS011;12775;46.994;15.498;2023-04-01T02:11:13;3.46;;;3.16;;
1987;SDS011;12775;46.994;15.498;2023-04-01T02:13:43;5.16;;;2.62;;
1987;SDS011;12775;46.994;15.498;2023-04-01T02:16:13;3.26;;;2.70;;
1987;SDS011;12775;46.994;15.498;2023-04-01T02:18:39;4.34;;;3.04;;
1987;SDS011;12775;46.994;15.498;2023-04-01T02:21:06;4.68;;;3.64;;
1987;SDS011;12775;46.994;15.498;2023-04-01T02:23:34;3.90;;;3.26;;
1987;SDS011;12775;46.994;15.498;2023-04-01T02:26:03;3.70;;;2.82;;
1987;SDS011;12775;46.994;15.498;2023-04-01T02:28:29;6.08;;;2.98;;
1987;SDS011;12775;46.994;15.498;2023-04-01T02:30:57;6.46;;;3.00;;
1987;SDS011;12775;46.994;15.498;2023-04-01T02:33:24;3.50;;;3.20;;
1987;SDS011;12775;46.994;15.498;2023-04-01T02:35:52;5.52;;;3.78;;
1987;SDS011;12775;46.994;15.498;2023-04-01T02:38:19;4.42;;;3.70;;
1987;SDS011;12775;46.994;15.498;2023-04-01T02:40:48;4.34;;;3.48;;
1987;SDS011;12775;46.994;15.498;2023-04-01T02:43:14;4.68;;;4.00;;
1987;SDS011;12775;46.994;15.498;2023-04-01T02:45:41;4.38;;;3.00;;
1987;SDS011;12775;46.994;15.498;2023-04-01T02:48:08;4.10;;;3.70;;
1987;SDS011;12775;46.994;15.498;2023-04-01T02:50:35;3.60;;;3.30;;
1987;SDS011;12775;46.994;15.498;2023-04-01T02:53:02;6.44;;;4.02;;
1987;SDS011;12775;46.994;15.498;2023-04-01T02:55:29;6.58;;;5.00;;
1987;SDS011;12775;46.994;15.498;2023-04-01T02:57:56;6.88;;;6.18;;
1987;SDS011;12775;46.994;15.498;2023-04-01T03:00:25;6.50;;;5.90;;
1987;SDS011;12775;46.994;15.498;2023-04-01T03:02:52;5.64;;;5.08;;
1987;SDS011;12775;46.994;15.498;2023-04-01T03:05:19;7.28;;;5.00;;
1987;SDS011;12775;46.994;15.498;2023-04-01T03:07:47;7.10;;;5.38;;
1987;SDS011;12775;46.994;15.498;2023-04-01T03:10:14;5.86;;;5.02;;
1987;SDS011;12775;46.994;15.498;2023-04-01T03:12:43;8.08;;;6.54;;
1987;SDS011;12775;46.994;15.498;2023-04-01T03:15:11;11.50;;;7.76;;
1987;SDS011;12775;46.994;15.498;2023-04-01T03:17:37;6.74;;;6.14;;
1987;SDS011;12775;46.994;15.498;2023-04-01T03:20:03;7.30;;;6.34;;
1987;SDS011;12775;46.994;15.498;2023-04-01T03:22:31;6.04;;;5.54;;
1987;SDS011;12775;46.994;15.498;2023-04-01T03:24:58;6.64;;;6.06;;
1987;SDS011;12775;46.994;15.498;2023-04-01T03:27:26;6.14;;;5.52;;
1987;SDS011;12775;46.994;15.498;2023-04-01T03:29:54;6.98;;;6.38;;
1987;SDS011;12775;46.994;15.498;2023-04-01T03:32:21;7.96;;;6.32;;
1987;SDS011;12775;46.994;15.498;2023-04-01T03:34:49;6.28;;;5.54;;
1987;SDS011;12775;46.994;15.498;2023-04-01T03:37:16;5.82;;;4.98;;
1987;SDS011;12775;46.994;15.498;2023-04-01T03:39:44;6.66;;;6.06;;
1987;SDS011;12775;46.994;15.498;2023-04-01T03:42:12;6.02;;;5.10;;
1987;SDS011;12775;46.994;15.498;2023-04-01T03:44:39;8.36;;;5.64;;
1987;SDS011;12775;46.994;15.498;2023-04-01T03:47:06;6.86;;;6.24;;
1987;SDS011;12775;46.994;15.498;2023-04-01T03:49:34;7.12;;;6.48;;
1987;SDS011;12775;46.994;15.498;2023-04-01T03:52:01;9.18;;;7.34;;
1987;SDS011;12775;46.994;15.498;2023-04-01T03:54:29;8.40;;;7.62;;
1987;SDS011;12775;46.994;15.498;2023-04-01T03:56:57;9.32;;;7.74;;
1987;SDS011;12775;46.994;15.498;2023-04-01T03:59:24;8.20;;;6.54;;
1987;SDS011;12775;46.994;15.498;2023-04-01T04:01:52;7.98;;;7.00;;
1987;SDS011;12775;46.994;15.498;2023-04-01T04:04:19;6.10;;;5.50;;
1987;SDS011;12775;46.994;15.498;2023-04-01T04:06:47;7.36;;;6.06;;
1987;SDS011;12775;46.994;15.498;2023-04-01T04:09:14;5.60;;;5.02;;
1987;SDS011;12775;46.994;15.498;2023-04-01T04:11:41;6.10;;;5.46;;
1987;SDS011;12775;46.994;15.498;2023-04-01T04:14:10;5.98;;;4.80;;
1987;SDS011;12775;46.994;15.498;2023-04-01T04:16:37;6.04;;;5.50;;
1987;SDS011;12775;46.994;15.498;2023-04-01T04:19:04;7.20;;;6.00;;
1987;SDS011;12775;46.994;15.498;2023-04-01T04:21:32;5.38;;;4.80;;
1987;SDS011;12775;46.994;15.498;2023-04-01T04:23:59;5.02;;;4.52;;
1987;SDS011;12775;46.994;15.498;2023-04-01T04:26:27;5.60;;;5.10;;
1987;SDS011;12775;46.994;15.498;2023-04-01T04:28:54;4.48;;;4.08;;
1987;SDS011;12775;46.994;15.498;2023-04-01T04:31:22;6.58;;;5.64;;
1987;SDS011;12775;46.994;15.498;2023-04-01T04:33:49;9.08;;;6.02;;
1987;SDS011;12775;46.994;15.498;2023-04-01T04:36:17;5.16;;;4.70;;
1987;SDS011;12775;46.994;15.498;2023-04-01T04:38:44;6.00;;;5.50;;
1987;SDS011;12775;46.994;15.498;2023-04-01T04:41:14;6.20;;;5.60;;
1987;SDS011;12775;46.994;15.498;2023-04-01T04:43:41;5.52;;;5.12;;
1987;SDS011;12775;46.994;15.498;2023-04-01T04:46:08;6.00;;;5.40;;
1987;SDS011;12775;46.994;15.498;2023-04-01T04:48:36;7.60;;;6.46;;
1987;SDS011;12775;46.994;15.498;2023-04-01T04:51:03;7.02;;;5.32;;
1987;SDS011;12775;46.994;15.498;2023-04-01T04:53:30;6.50;;;5.88;;
1987;SDS011;12775;46.994;15.498;2023-04-01T04:55:57;5.84;;;5.30;;
1987;SDS011;12775;46.994;15.498;2023-04-01T04:58:23;5.94;;;5.02;;
1987;SDS011;12775;46.994;15.498;2023-04-01T05:00:50;6.78;;;6.18;;
1987;SDS011;12775;46.994;15.498;2023-04-01T05:03:17;8.58;;;6.32;;
1987;SDS011;12775;46.994;15.498;2023-04-01T05:05:48;6.46;;;5.72;;
1987;SDS011;12775;46.994;15.498;2023-04-01T05:08:15;6.50;;;5.90;;
1987;SDS011;12775;46.994;15.498;2023-04-01T05:10:42;8.98;;;6.16;;
1987;SDS011;12775;46.994;15.498;2023-04-01T05:13:09;7.08;;;6.38;;
1987;SDS011;12775;46.994;15.498;2023-04-01T05:15:37;7.44;;;6.66;;
1987;SDS011;12775;46.994;15.498;2023-04-01T05:18:04;7.02;;;5.64;;
1987;SDS011;12775;46.994;15.498;2023-04-01T05:20:31;7.38;;;6.68;;
1987;SDS011;12775;46.994;15.498;2023-04-01T05:22:59;9.94;;;6.72;;
1987;SDS011;12775;46.994;15.498;2023-04-01T05:25:26;6.34;;;5.58;;
1987;SDS011;12775;46.994;15.498;2023-04-01T05:27:54;7.82;;;5.88;;
1987;SDS011;12775;46.994;15.498;2023-04-01T05:30:23;8.06;;;6.54;;
1987;SDS011;12775;46.994;15.498;2023-04-01T05:32:50;7.96;;;6.62;;
1987;SDS011;12775;46.994;15.498;2023-04-01T05:35:17;7.68;;;6.18;;
1987;SDS011;12775;46.994;15.498;2023-04-01T05:37:44;9.30;;;7.66;;
1987;SDS011;12775;46.994;15.498;2023-04-01T05:40:11;9.66;;;6.96;;
1987;SDS011;12775;46.994;15.498;2023-04-01T05:42:39;9.64;;;6.54;;
1987;SDS011;12775;46.994;15.498;2023-04-01T05:45:06;9.34;;;6.88;;
1987;SDS011;12775;46.994;15.498;2023-04-01T05:47:36;9.72;;;6.44;;
1987;SDS011;12775;46.994;15.498;2023-04-01T05:50:05;8.86;;;6.42;;
1987;SDS011;12775;46.994;15.498;2023-04-01T05:52:31;6.14;;;5.54;;
1987;SDS011;12775;46.994;15.498;2023-04-01T05:54:58;6.54;;;5.56;;
1987;SDS011;12775;46.994;15.498;2023-04-01T05:57:25;5.96;;;4.68;;
1987;SDS011;12775;46.994;15.498;2023-04-01T05:59:52;6.56;;;5.96;;
1987;SDS011;12775;46.994;15.498;2023-04-01T06:02:20;8.82;;;5.66;;
1987;SDS011;12775;46.994;15.498;2023-04-01T06:04:47;7.78;;;5.76;;
1987;SDS011;12775;46.994;15.498;2023-04-01T06:07:16;5.00;;;4.12;;
1987;SDS011;12775;46.994;15.498;2023-04-01T06:09:43;4.52;;;3.94;;
1987;SDS011;12775;46.994;15.498;2023-04-01T06:14:50;5.70;;;4.24;;
1987;SDS011;12775;46.994;15.498;2023-04-01T06:17:30;5.00;;;4.60;;
1987;SDS011;12775;46.994;15.498;2023-04-01T06:20:03;4.70;;;4.30;;
1987;SDS011;12775;46.994;15.498;2023-04-01T06:22:36;4.46;;;4.06;;
1987;SDS011;12775;46.994;15.498;2023-04-01T06:25:37;5.88;;;4.32;;
1987;SDS011;12775;46.994;15.498;2023-04-01T06:29:16;5.56;;;4.64;;
1987;SDS011;12775;46.994;15.498;2023-04-01T06:31:03;10.28;;;6.02;;
1987;SDS011;12775;46.994;15.498;2023-04-01T06:33:35;10.00;;;6.56;;
1987;SDS011;12775;46.994;15.498;2023-04-01T06:36:25;8.74;;;6.84;;
1987;SDS011;12775;46.994;15.498;2023-04-01T06:39:05;6.76;;;5.70;;
1987;SDS011;12775;46.994;15.498;2023-04-01T06:44:56;9.18;;;6.72;;
1987;SDS011;12775;46.994;15.498;2023-04-01T06:47:15;7.58;;;6.14;;
1987;SDS011;12775;46.994;15.498;2023-04-01T06:49:48;7.28;;;6.62;;
1987;SDS011;12775;46.994;15.498;2023-04-01T06:52:22;6.52;;;5.92;;
1987;SDS011;12775;46.994;15.498;2023-04-01T06:54:47;5.74;;;5.14;;
1987;SDS011;12775;46.994;15.498;2023-04-01T06:57:20;6.24;;;5.64;;
1987;SDS011;12775;46.994;15.498;2023-04-01T06:59:47;8.80;;;5.84;;
1987;SDS011;12775;46.994;15.498;2023-04-01T07:02:18;5.82;;;5.22;;
1987;SDS011;12775;46.994;15.498;2023-04-01T07:04:43;6.94;;;5.52;;
1987;SDS011;12775;46.994;15.498;2023-04-01T07:07:14;6.46;;;5.76;;
1987;SDS011;12775;46.994;15.498;2023-04-01T07:09:48;6.26;;;5.76;;
1987;SDS011;12775;46.994;15.498;2023-04-01T07:12:16;6.64;;;6.04;;
1987;SDS011;12775;46.994;15.498;2023-04-01T07:14:42;6.34;;;5.14;;
1987;SDS011;12775;46.994;15.498;2023-04-01T07:17:14;6.00;;;4.24;;
1987;SDS011;12775;46.994;15.498;2023-04-01T07:19:43;4.94;;;4.54;;
1987;SDS011;12775;46.994;15.498;2023-04-01T07:22:25;5.74;;;4.90;;
1987;SDS011;12775;46.994;15.498;2023-04-01T07:24:57;4.86;;;4.48;;
1987;SDS011;12775;46.994;15.498;2023-04-01T07:27:25;5.20;;;4.70;;
1987;SDS011;12775;46.994;15.498;2023-04-01T07:29:53;4.74;;;4.34;;
1987;SDS011;12775;46.994;15.498;2023-04-01T07:32:31;6.56;;;5.96;;
1987;SDS011;12775;46.994;15.498;2023-04-01T07:35:05;6.36;;;5.48;;
1987;SDS011;12775;46.994;15.498;2023-04-01T07:37:38;8.34;;;5.02;;
1987;SDS011;12775;46.994;15.498;2023-04-01T07:40:11;4.40;;;4.00;;
1987;SDS011;12775;46.994;15.498;2023-04-01T07:42:57;6.66;;;3.84;;
1987;SDS011;12775;46.994;15.498;2023-04-01T07:45:35;4.56;;;4.16;;
1987;SDS011;12775;46.994;15.498;2023-04-01T07:48:06;4.72;;;4.32;;
1987;SDS011;12775;46.994;15.498;2023-04-01T07:50:38;4.56;;;4.16;;
1987;SDS011;12775;46.994;15.498;2023-04-01T07:55:58;2.90;;;2.70;;
1987;SDS011;12775;46.994;15.498;2023-04-01T07:58:27;3.18;;;2.88;;
1987;SDS011;12775;46.994;15.498;2023-04-01T08:00:58;4.18;;;3.70;;
1987;SDS011;12775;46.994;15.498;2023-04-01T08:05:57;3.50;;;3.20;;
1987;SDS011;12775;46.994;15.498;2023-04-01T08:09:32;3.26;;;2.96;;
1987;SDS011;12775;46.994;15.498;2023-04-01T08:11:12;3.30;;;2.54;;
1987;SDS011;12775;46.994;15.498;2023-04-01T08:13:44;2.48;;;2.28;;
1987;SDS011;12775;46.994;15.498;2023-04-01T08:16:16;3.62;;;3.24;;
1987;SDS011;12775;46.994;15.498;2023-04-01T08:19:01;2.78;;;2.58;;
1987;SDS011;12775;46.994;15.498;2023-04-01T08:21:31;4.46;;;2.72;;
1987;SDS011;12775;46.994;15.498;2023-04-01T08:23:57;6.04;;;2.94;;
1987;SDS011;12775;46.994;15.498;2023-04-01T08:26:27;1.80;;;1.70;;
1987;SDS011;12775;46.994;15.498;2023-04-01T08:28:55;1.70;;;1.60;;
1987;SDS011;12775;46.994;15.498;2023-04-01T08:33:57;1.40;;;1.30;;
1987;SDS011;12775;46.994;15.498;2023-04-01T08:36:28;2.16;;;1.96;;
1987;SDS011;12775;46.994;15.498;2023-04-01T08:39:04;2.34;;;1.64;;
1987;SDS011;12775;46.994;15.498;2023-04-01T08:41:39;3.68;;;2.46;;
1987;SDS011;12775;46.994;15.498;2023-04-01T08:44:13;3.26;;;1.38;;
1987;SDS011;12775;46.994;15.498;2023-04-01T08:49:41;5.66;;;2.00;;
1987;SDS011;12775;46.994;15.498;2023-04-01T08:52:10;4.06;;;1.28;;
1987;SDS011;12775;46.994;15.498;2023-04-01T08:57:56;1.64;;;1.50;;
1987;SDS011;12775;46.994;15.498;2023-04-01T09:00:37;1.60;;;1.50;;
1987;SDS011;12775;46.994;15.498;2023-04-01T09:03:17;1.54;;;1.32;;
1987;SDS011;12775;46.994;15.498;2023-04-01T09:08:33;2.30;;;1.68;;
1987;SDS011;12775;46.994;15.498;2023-04-01T09:11:02;1.18;;;1.08;;
1987;SDS011;12775;46.994;15.498;2023-04-01T09:13:33;1.72;;;1.62;;
1987;SDS011;12775;46.994;15.498;2023-04-01T09:18:58;2.66;;;1.40;;
1987;SDS011;12775;46.994;15.498;2023-04-01T09:21:39;1.44;;;1.30;;
1987;SDS011;12775;46.994;15.498;2023-04-01T09:24:25;2.40;;;1.64;;
1987;SDS011;12775;46.994;15.498;2023-04-01T09:27:01;2.22;;;1.78;;
1987;SDS011;12775;46.994;15.498;2023-04-01T09:32:53;4.46;;;2.26;;
1987;SDS011;12775;46.994;15.498;2023-04-01T09:35:46;1.94;;;1.68;;
1987;SDS011;12775;46.994;15.498;2023-04-01T09:40:58;2.74;;;1.68;;
1987;SDS011;12775;46.994;15.498;2023-04-01T09:43:39;2.44;;;1.26;;
1987;SDS011;12775;46.994;15.498;2023-04-01T09:51:35;1.18;;;1.08;;
1987;SDS011;12775;46.994;15.498;2023-04-01T09:54:03;1.10;;;0.98;;
1987;SDS011;12775;46.994;15.498;2023-04-01T10:02:18;2.34;;;1.56;;
1987;SDS011;12775;46.994;15.498;2023-04-01T10:05:01;1.54;;;1.00;;
1987;SDS011;12775;46.994;15.498;2023-04-01T10:07:51;1.24;;;0.74;;
1987;SDS011;12775;46.994;15.498;2023-04-01T10:10:27;1.74;;;0.70;;
1987;SDS011;12775;46.994;15.498;2023-04-01T10:16:03;0.96;;;0.76;;
1987;SDS011;12775;46.994;15.498;2023-04-01T10:18:36;0.80;;;0.66;;
1987;SDS011;12775;46.994;15.498;2023-04-01T10:26:40;1.02;;;0.50;;
1987;SDS011;12775;46.994;15.498;2023-04-01T10:29:28;1.12;;;0.52;;
1987;SDS011;12775;46.994;15.498;2023-04-01T10:32:17;2.28;;;0.90;;
1987;SDS011;12775;46.994;15.498;2023-04-01T10:35:04;0.98;;;0.88;;
1987;SDS011;12775;46.994;15.498;2023-04-01T10:40:26;0.78;;;0.58;;
1987;SDS011;12775;46.994;15.498;2023-04-01T10:43:03;0.60;;;0.46;;
1987;SDS011;12775;46.994;15.498;2023-04-01T10:45:36;1.58;;;1.04;;
1987;SDS011;12775;46.994;15.498;2023-04-01T10:48:28;1.20;;;0.82;;
1987;SDS011;12775;46.994;15.498;2023-04-01T10:51:01;0.70;;;0.50;;
1987;SDS011;12775;46.994;15.498;2023-04-01T10:53:48;0.60;;;0.40;;
1987;SDS011;12775;46.994;15.498;2023-04-01T10:58:55;0.60;;;0.50;;
1987;SDS011;12775;46.994;15.498;2023-04-01T11:01:40;0.78;;;0.50;;
1987;SDS011;12775;46.994;15.498;2023-04-01T11:07:07;1.00;;;0.40;;
1987;SDS011;12775;46.994;15.498;2023-04-01T11:09:49;1.02;;;0.50;;
1987;SDS011;12775;46.994;15.498;2023-04-01T11:12:31;1.60;;;0.50;;
1987;SDS011;12775;46.994;15.498;2023-04-01T11:15:31;0.70;;;0.40;;
1987;SDS011;12775;46.994;15.498;2023-04-01T11:17:57;0.60;;;0.42;;
1987;SDS011;12775;46.994;15.498;2023-04-01T11:23:03;0.90;;;0.58;;
1987;SDS011;12775;46.994;15.498;2023-04-01T11:25:36;0.68;;;0.40;;
1987;SDS011;12775;46.994;15.498;2023-04-01T11:33:50;1.86;;;0.50;;
1987;SDS011;12775;46.994;15.498;2023-04-01T11:36:34;0.56;;;0.42;;
1987;SDS011;12775;46.994;15.498;2023-04-01T11:42:14;0.96;;;0.44;;
1987;SDS011;12775;46.994;15.498;2023-04-01T11:44:48;0.60;;;0.36;;
1987;SDS011;12775;46.994;15.498;2023-04-01T11:47:25;0.66;;;0.40;;
1987;SDS011;12775;46.994;15.498;2023-04-01T11:52:37;0.60;;;0.40;;
1987;SDS011;12775;46.994;15.498;2023-04-01T11:55:12;0.72;;;0.50;;
1987;SDS011;12775;46.994;15.498;2023-04-01T12:00:35;1.14;;;0.82;;
1987;SDS011;12775;46.994;15.498;2023-04-01T12:03:13;0.60;;;0.40;;
1987;SDS011;12775;46.994;15.498;2023-04-01T12:06:02;0.78;;;0.40;;
1987;SDS011;12775;46.994;15.498;2023-04-01T12:08:45;0.50;;;0.40;;
1987;SDS011;12775;46.994;15.498;2023-04-01T12:11:20;0.70;;;0.50;;
1987;SDS011;12775;46.994;15.498;2023-04-01T12:13:53;0.84;;;0.50;;
1987;SDS011;12775;46.994;15.498;2023-04-01T12:16:22;1.48;;;0.40;;
1987;SDS011;12775;46.994;15.498;2023-04-01T12:18:50;0.60;;;0.40;;
1987;SDS011;12775;46.994;15.498;2023-04-01T12:21:22;0.86;;;0.50;;
1987;SDS011;12775;46.994;15.498;2023-04-01T12:26:43;1.04;;;0.50;;
1987;SDS011;12775;46.994;15.498;2023-04-01T12:32:03;2.60;;;0.40;;
1987;SDS011;12775;46.994;15.498;2023-04-01T12:34:35;2.86;;;0.80;;
1987;SDS011;12775;46.994;15.498;2023-04-01T12:43:21;0.60;;;0.40;;
1987;SDS011;12775;46.994;15.498;2023-04-01T12:45:29;0.90;;;0.40;;
1987;SDS011;12775;46.994;15.498;2023-04-01T12:48:00;0.82;;;0.40;;
1987;SDS011;12775;46.994;15.498;2023-04-01T12:50:58;0.98;;;0.40;;
1987;SDS011;12775;46.994;15.498;2023-04-01T12:56:14;1.92;;;0.50;;
1987;SDS011;12775;46.994;15.498;2023-04-01T12:59:09;0.76;;;0.52;;
1987;SDS011;12775;46.994;15.498;2023-04-01T13:01:56;1.48;;;0.60;;
1987;SDS011;12775;46.994;15.498;2023-04-01T13:04:32;0.50;;;0.40;;
1987;SDS011;12775;46.994;15.498;2023-04-01T13:09:40;0.60;;;0.40;;
1987;SDS011;12775;46.994;15.498;2023-04-01T13:12:29;0.98;;;0.50;;
1987;SDS011;12775;46.994;15.498;2023-04-01T13:15:13;0.78;;;0.40;;
1987;SDS011;12775;46.994;15.498;2023-04-01T13:17:49;0.50;;;0.40;;
1987;SDS011;12775;46.994;15.498;2023-04-01T13:20:36;0.80;;;0.40;;
1987;SDS011;12775;46.994;15.498;2023-04-01T13:23:24;0.60;;;0.40;;
1987;SDS011;12775;46.994;15.498;2023-04-01T13:26:13;0.60;;;0.40;;
1987;SDS011;12775;46.994;15.498;2023-04-01T13:28:59;1.00;;;0.40;;
1987;SDS011;12775;46.994;15.498;2023-04-01T13:34:23;0.80;;;0.40;;
1987;SDS011;12775;46.994;15.498;2023-04-01T13:37:04;1.16;;;0.40;;
1987;SDS011;12775;46.994;15.498;2023-04-01T13:39:35;0.60;;;0.40;;
1987;SDS011;12775;46.994;15.498;2023-04-01T13:42:16;0.50;;;0.40;;
1987;SDS011;12775;46.994;15.498;2023-04-01T13:44:49;1.34;;;0.40;;
1987;SDS011;12775;46.994;15.498;2023-04-01T13:50:07;0.70;;;0.40;;
1987;SDS011;12775;46.994;15.498;2023-04-01T13:55:49;0.68;;;0.40;;
1987;SDS011;12775;46.994;15.498;2023-04-01T13:58:23;0.50;;;0.40;;
1987;SDS011;12775;46.994;15.498;2023-04-01T14:00:55;0.60;;;0.40;;
1987;SDS011;12775;46.994;15.498;2023-04-01T14:03:52;0.60;;;0.40;;
1987;SDS011;12775;46.994;15.498;2023-04-01T14:06:27;1.84;;;1.00;;
1987;SDS011;12775;46.994;15.498;2023-04-01T14:09:11;1.10;;;0.40;;
1987;SDS011;12775;46.994;15.498;2023-04-01T14:11:45;0.76;;;0.40;;
1987;SDS011;12775;46.994;15.498;2023-04-01T14:14:17;0.60;;;0.44;;
1987;SDS011;12775;46.994;15.498;2023-04-01T14:16:53;0.60;;;0.54;;
1987;SDS011;12775;46.994;15.498;2023-04-01T14:19:39;0.60;;;0.50;;
1987;SDS011;12775;46.994;15.498;2023-04-01T14:22:21;0.92;;;0.40;;
1987;SDS011;12775;46.994;15.498;2023-04-01T14:27:49;12.54;;;2.90;;
1987;SDS011;12775;46.994;15.498;2023-04-01T14:30:27;3.00;;;1.48;;
1987;SDS011;12775;46.994;15.498;2023-04-01T14:33:01;20.74;;;8.32;;
1987;SDS011;12775;46.994;15.498;2023-04-01T14:35:30;2.40;;;0.94;;
1987;SDS011;12775;46.994;15.498;2023-04-01T14:38:00;1.56;;;0.50;;
1987;SDS011;12775;46.994;15.498;2023-04-01T14:43:40;1.38;;;0.64;;
1987;SDS011;12775;46.994;15.498;2023-04-01T14:48:51;0.56;;;0.34;;
1987;SDS011;12775;46.994;15.498;2023-04-01T14:51:18;0.50;;;0.34;;
1987;SDS011;12775;46.994;15.498;2023-04-01T14:53:53;0.50;;;0.30;;
1987;SDS011;12775;46.994;15.498;2023-04-01T14:56:37;0.82;;;0.40;;
1987;SDS011;12775;46.994;15.498;2023-04-01T14:59:08;0.60;;;0.40;;
1987;SDS011;12775;46.994;15.498;2023-04-01T15:01:40;0.64;;;0.40;;
1987;SDS011;12775;46.994;15.498;2023-04-01T15:04:22;0.60;;;0.40;;
1987;SDS011;12775;46.994;15.498;2023-04-01T15:07:05;0.60;;;0.40;;
1987;SDS011;12775;46.994;15.498;2023-04-01T15:09:39;0.54;;;0.40;;
1987;SDS011;12775;46.994;15.498;2023-04-01T15:12:14;0.68;;;0.44;;
1987;SDS011;12775;46.994;15.498;2023-04-01T15:15:00;0.50;;;0.40;;
1987;SDS011;12775;46.994;15.498;2023-04-01T15:17:43;0.60;;;0.40;;
1987;SDS011;12775;46.994;15.498;2023-04-01T15:20:13;0.50;;;0.40;;
1987;SDS011;12775;46.994;15.498;2023-04-01T15:22:52;0.70;;;0.50;;
1987;SDS011;12775;46.994;15.498;2023-04-01T15:25:26;0.64;;;0.48;;
1987;SDS011;12775;46.994;15.498;2023-04-01T15:28:13;3.72;;;0.52;;
1987;SDS011;12775;46.994;15.498;2023-04-01T15:30:54;0.80;;;0.46;;
1987;SDS011;12775;46.994;15.498;2023-04-01T15:33:34;0.70;;;0.46;;
1987;SDS011;12775;46.994;15.498;2023-04-01T15:36:10;0.80;;;0.50;;
1987;SDS011;12775;46.994;15.498;2023-04-01T15:38:44;0.64;;;0.48;;
1987;SDS011;12775;46.994;15.498;2023-04-01T15:42:04;0.72;;;0.46;;
1987;SDS011;12775;46.994;15.498;2023-04-01T15:46:55;0.60;;;0.40;;
1987;SDS011;12775;46.994;15.498;2023-04-01T15:49:34;0.60;;;0.40;;
1987;SDS011;12775;46.994;15.498;2023-04-01T15:52:10;1.70;;;0.50;;
1987;SDS011;12775;46.994;15.498;2023-04-01T15:57:24;0.78;;;0.48;;
1987;SDS011;12775;46.994;15.498;2023-04-01T16:00:06;0.60;;;0.40;;
1987;SDS011;12775;46.994;15.498;2023-04-01T16:11:37;0.80;;;0.50;;
1987;SDS011;12775;46.994;15.498;2023-04-01T16:14:21;0.56;;;0.42;;
1987;SDS011;12775;46.994;15.498;2023-04-01T16:17:05;0.60;;;0.40;;
1987;SDS011;12775;46.994;15.498;2023-04-01T16:19:39;0.72;;;0.40;;
1987;SDS011;12775;46.994;15.498;2023-04-01T16:22:12;0.88;;;0.50;;
1987;SDS011;12775;46.994;15.498;2023-04-01T16:24:46;1.00;;;0.60;;
1987;SDS011;12775;46.994;15.498;2023-04-01T16:27:35;0.60;;;0.42;;
1987;SDS011;12775;46.994;15.498;2023-04-01T16:30:17;0.70;;;0.50;;
1987;SDS011;12775;46.994;15.498;2023-04-01T16:32:38;1.82;;;0.50;;
1987;SDS011;12775;46.994;15.498;2023-04-01T16:37:50;0.60;;;0.40;;
1987;SDS011;12775;46.994;15.498;2023-04-01T16:40:23;0.70;;;0.50;;
1987;SDS011;12775;46.994;15.498;2023-04-01T16:42:56;1.32;;;0.80;;
1987;SDS011;12775;46.994;15.498;2023-04-01T16:45:39;0.80;;;0.50;;
1987;SDS011;12775;46.994;15.498;2023-04-01T16:48:11;0.64;;;0.40;;
1987;SDS011;12775;46.994;15.498;2023-04-01T16:50:42;1.20;;;0.96;;
1987;SDS011;12775;46.994;15.498;2023-04-01T16:53:09;1.78;;;1.34;;
1987;SDS011;12775;46.994;15.498;2023-04-01T16:55:43;3.44;;;1.64;;
1987;SDS011;12775;46.994;15.498;2023-04-01T16:58:27;3.48;;;2.66;;
1987;SDS011;12775;46.994;15.498;2023-04-01T17:01:00;2.80;;;1.94;;
1987;SDS011;12775;46.994;15.498;2023-04-01T17:03:44;3.34;;;2.24;;
1987;SDS011;12775;46.994;15.498;2023-04-01T17:09:09;1.46;;;1.30;;
1987;SDS011;12775;46.994;15.498;2023-04-01T17:11:57;1.68;;;1.12;;
1987;SDS011;12775;46.994;15.498;2023-04-01T17:14:28;1.42;;;1.12;;
1987;SDS011;12775;46.994;15.498;2023-04-01T17:17:16;1.00;;;0.86;;
1987;SDS011;12775;46.994;15.498;2023-04-01T17:28:21;2.56;;;0.86;;
1987;SDS011;12775;46.994;15.498;2023-04-01T17:33:35;1.10;;;0.84;;
1987;SDS011;12775;46.994;15.498;2023-04-01T17:36:08;1.40;;;0.92;;
1987;SDS011;12775;46.994;15.498;2023-04-01T17:38:45;1.22;;;1.04;;
1987;SDS011;12775;46.994;15.498;2023-04-01T17:44:13;5.84;;;1.08;;
1987;SDS011;12775;46.994;15.498;2023-04-01T17:46:59;3.28;;;1.78;;
1987;SDS011;12775;46.994;15.498;2023-04-01T17:49:35;1.26;;;1.16;;
1987;SDS011;12775;46.994;15.498;2023-04-01T17:54:46;0.90;;;0.90;;